Terminal Aerodrome Forecast
Issued by NWS Sterling, VA

Home | Current Version | Previous Version | Text Only | Print | Product List | Glossary On
Versions: 1 2 3 4 5 6 7 8 9 10 11 12 13 14 15
000
FTUS41 KLWX 270500
TAFCHO
TAF
KCHO 270536Z 2706/2806 00000KT 2SM BR SCT035 BKN070
     FM271200 00000KT P6SM OVC025
     FM271900 VRB03KT P6SM BKN035
     FM272300 31007KT P6SM SCT050=

USA.gov is the U.S. government's official web portal to all federal, state and local government web resources and services.